sensor_id;sensor_type;location;lat;lon;timestamp;temperature;humidity
28520;DHT22;15732;48.534;20.382;2022-11-09T00:00:21;9.20;99.90
28520;DHT22;15732;48.534;20.382;2022-11-09T00:02:54;9.20;99.90
28520;DHT22;15732;48.534;20.382;2022-11-09T00:05:28;9.20;99.90
28520;DHT22;15732;48.534;20.382;2022-11-09T00:07:55;9.10;99.90
28520;DHT22;15732;48.534;20.382;2022-11-09T00:10:22;9.10;99.90
28520;DHT22;15732;48.534;20.382;2022-11-09T00:12:50;9.10;99.90
28520;DHT22;15732;48.534;20.382;2022-11-09T00:15:17;9.00;99.90
28520;DHT22;15732;48.534;20.382;2022-11-09T00:17:45;9.00;99.90
28520;DHT22;15732;48.534;20.382;2022-11-09T00:20:12;9.10;99.90
28520;DHT22;15732;48.534;20.382;2022-11-09T00:22:38;9.00;99.90
28520;DHT22;15732;48.534;20.382;2022-11-09T00:25:06;9.00;99.90
28520;DHT22;15732;48.534;20.382;2022-11-09T00:27:34;9.00;99.90
28520;DHT22;15732;48.534;20.382;2022-11-09T00:30:01;9.00;99.90
28520;DHT22;15732;48.534;20.382;2022-11-09T00:32:29;9.00;99.90
28520;DHT22;15732;48.534;20.382;2022-11-09T00:34:56;9.00;99.90
28520;DHT22;15732;48.534;20.382;2022-11-09T00:37:23;9.00;99.90
28520;DHT22;15732;48.534;20.382;2022-11-09T00:39:50;9.00;99.90
28520;DHT22;15732;48.534;20.382;2022-11-09T00:42:17;9.00;99.90
28520;DHT22;15732;48.534;20.382;2022-11-09T00:44:44;9.00;99.90
28520;DHT22;15732;48.534;20.382;2022-11-09T00:47:12;9.00;99.90
28520;DHT22;15732;48.534;20.382;2022-11-09T00:49:43;9.00;99.90
28520;DHT22;15732;48.534;20.382;2022-11-09T00:52:10;8.90;99.90
28520;DHT22;15732;48.534;20.382;2022-11-09T00:54:38;8.90;99.90
28520;DHT22;15732;48.534;20.382;2022-11-09T00:57:10;8.90;99.90
28520;DHT22;15732;48.534;20.382;2022-11-09T00:59:37;8.90;99.90
28520;DHT22;15732;48.534;20.382;2022-11-09T01:02:05;8.90;99.90
28520;DHT22;15732;48.534;20.382;2022-11-09T01:04:36;8.90;99.90
28520;DHT22;15732;48.534;20.382;2022-11-09T01:07:07;8.90;99.90
28520;DHT22;15732;48.534;20.382;2022-11-09T01:09:39;8.80;99.90
28520;DHT22;15732;48.534;20.382;2022-11-09T01:12:06;8.80;99.90
28520;DHT22;15732;48.534;20.382;2022-11-09T01:14:33;8.80;99.90
28520;DHT22;15732;48.534;20.382;2022-11-09T01:17:01;8.80;99.90
28520;DHT22;15732;48.534;20.382;2022-11-09T01:19:28;8.80;99.90
28520;DHT22;15732;48.534;20.382;2022-11-09T01:21:55;8.80;99.90
28520;DHT22;15732;48.534;20.382;2022-11-09T01:24:23;8.80;99.90
28520;DHT22;15732;48.534;20.382;2022-11-09T01:26:50;8.80;99.90
28520;DHT22;15732;48.534;20.382;2022-11-09T01:29:18;8.70;99.90
28520;DHT22;15732;48.534;20.382;2022-11-09T01:31:45;8.70;99.90
28520;DHT22;15732;48.534;20.382;2022-11-09T01:34:14;8.70;99.90
28520;DHT22;15732;48.534;20.382;2022-11-09T01:36:48;8.70;99.90
28520;DHT22;15732;48.534;20.382;2022-11-09T01:39:16;8.70;99.90
28520;DHT22;15732;48.534;20.382;2022-11-09T01:41:43;8.60;99.90
28520;DHT22;15732;48.534;20.382;2022-11-09T01:44:18;8.60;99.90
28520;DHT22;15732;48.534;20.382;2022-11-09T01:46:50;8.60;99.90
28520;DHT22;15732;48.534;20.382;2022-11-09T01:52:06;8.60;99.90
28520;DHT22;15732;48.534;20.382;2022-11-09T01:54:47;8.60;99.90
28520;DHT22;15732;48.534;20.382;2022-11-09T01:57:22;8.50;99.90
28520;DHT22;15732;48.534;20.382;2022-11-09T02:00:10;8.50;99.90
28520;DHT22;15732;48.534;20.382;2022-11-09T02:02:42;8.50;99.90
28520;DHT22;15732;48.534;20.382;2022-11-09T02:05:15;8.50;99.90
28520;DHT22;15732;48.534;20.382;2022-11-09T02:07:48;8.50;99.90
28520;DHT22;15732;48.534;20.382;2022-11-09T02:11:05;8.50;99.90
28520;DHT22;15732;48.534;20.382;2022-11-09T02:13:30;8.50;99.90
28520;DHT22;15732;48.534;20.382;2022-11-09T02:15:58;8.40;99.90
28520;DHT22;15732;48.534;20.382;2022-11-09T02:18:30;8.40;99.90
28520;DHT22;15732;48.534;20.382;2022-11-09T02:20:57;8.40;99.90
28520;DHT22;15732;48.534;20.382;2022-11-09T02:23:29;8.30;99.90
28520;DHT22;15732;48.534;20.382;2022-11-09T02:26:02;8.40;99.90
28520;DHT22;15732;48.534;20.382;2022-11-09T02:28:31;8.40;99.90
28520;DHT22;15732;48.534;20.382;2022-11-09T02:31:04;8.40;99.90
28520;DHT22;15732;48.534;20.382;2022-11-09T02:33:53;8.40;99.90
28520;DHT22;15732;48.534;20.382;2022-11-09T02:36:25;8.40;99.90
28520;DHT22;15732;48.534;20.382;2022-11-09T02:38:56;8.40;99.90
28520;DHT22;15732;48.534;20.382;2022-11-09T02:41:24;8.40;99.90
28520;DHT22;15732;48.534;20.382;2022-11-09T02:43:53;8.40;99.90
28520;DHT22;15732;48.534;20.382;2022-11-09T02:46:24;8.40;99.90
28520;DHT22;15732;48.534;20.382;2022-11-09T02:49:00;8.40;99.90
28520;DHT22;15732;48.534;20.382;2022-11-09T02:51:31;8.40;99.90
28520;DHT22;15732;48.534;20.382;2022-11-09T02:53:58;8.40;99.90
28520;DHT22;15732;48.534;20.382;2022-11-09T02:56:30;8.40;99.90
28520;DHT22;15732;48.534;20.382;2022-11-09T02:58:57;8.30;99.90
28520;DHT22;15732;48.534;20.382;2022-11-09T03:01:23;8.30;99.90
28520;DHT22;15732;48.534;20.382;2022-11-09T03:03:50;8.30;99.90
28520;DHT22;15732;48.534;20.382;2022-11-09T03:06:18;8.30;99.90
28520;DHT22;15732;48.534;20.382;2022-11-09T03:08:45;8.30;99.90
28520;DHT22;15732;48.534;20.382;2022-11-09T03:11:12;8.30;99.90
28520;DHT22;15732;48.534;20.382;2022-11-09T03:13:40;8.30;99.90
28520;DHT22;15732;48.534;20.382;2022-11-09T03:16:07;8.20;99.90
28520;DHT22;15732;48.534;20.382;2022-11-09T03:18:35;8.20;99.90
28520;DHT22;15732;48.534;20.382;2022-11-09T03:21:05;8.30;99.90
28520;DHT22;15732;48.534;20.382;2022-11-09T03:23:33;8.20;99.90
28520;DHT22;15732;48.534;20.382;2022-11-09T03:26:00;8.30;99.90
28520;DHT22;15732;48.534;20.382;2022-11-09T03:28:27;8.30;99.90
28520;DHT22;15732;48.534;20.382;2022-11-09T03:30:55;8.40;99.90
28520;DHT22;15732;48.534;20.382;2022-11-09T03:33:22;8.40;99.90
28520;DHT22;15732;48.534;20.382;2022-11-09T03:35:53;8.50;99.90
28520;DHT22;15732;48.534;20.382;2022-11-09T03:38:24;8.50;99.90
28520;DHT22;15732;48.534;20.382;2022-11-09T03:40:51;8.50;99.90
28520;DHT22;15732;48.534;20.382;2022-11-09T03:43:22;8.50;99.90
28520;DHT22;15732;48.534;20.382;2022-11-09T03:45:49;8.50;99.90
28520;DHT22;15732;48.534;20.382;2022-11-09T03:48:17;8.50;99.90
28520;DHT22;15732;48.534;20.382;2022-11-09T03:50:45;8.50;99.90
28520;DHT22;15732;48.534;20.382;2022-11-09T03:53:12;8.50;99.90
28520;DHT22;15732;48.534;20.382;2022-11-09T03:55:43;8.40;99.90
28520;DHT22;15732;48.534;20.382;2022-11-09T03:58:10;8.40;99.90
28520;DHT22;15732;48.534;20.382;2022-11-09T04:00:38;8.40;99.90
28520;DHT22;15732;48.534;20.382;2022-11-09T04:03:05;8.30;99.90
28520;DHT22;15732;48.534;20.382;2022-11-09T04:05:32;8.20;99.90
28520;DHT22;15732;48.534;20.382;2022-11-09T04:08:04;8.20;99.90
28520;DHT22;15732;48.534;20.382;2022-11-09T04:10:31;8.20;99.90
28520;DHT22;15732;48.534;20.382;2022-11-09T04:12:59;8.20;99.90
28520;DHT22;15732;48.534;20.382;2022-11-09T04:15:26;8.10;99.90
28520;DHT22;15732;48.534;20.382;2022-11-09T04:17:54;8.20;99.90
28520;DHT22;15732;48.534;20.382;2022-11-09T04:20:21;8.20;99.90
28520;DHT22;15732;48.534;20.382;2022-11-09T04:23:14;8.20;99.90
28520;DHT22;15732;48.534;20.382;2022-11-09T04:25:45;8.20;99.90
28520;DHT22;15732;48.534;20.382;2022-11-09T04:28:12;8.20;99.90
28520;DHT22;15732;48.534;20.382;2022-11-09T04:30:40;8.20;99.90
28520;DHT22;15732;48.534;20.382;2022-11-09T04:33:11;8.20;99.90
28520;DHT22;15732;48.534;20.382;2022-11-09T04:35:38;8.30;99.90
28520;DHT22;15732;48.534;20.382;2022-11-09T04:38:07;8.30;99.90
28520;DHT22;15732;48.534;20.382;2022-11-09T04:40:36;8.40;99.90
28520;DHT22;15732;48.534;20.382;2022-11-09T04:43:05;8.40;99.90
28520;DHT22;15732;48.534;20.382;2022-11-09T04:45:36;8.50;99.90
28520;DHT22;15732;48.534;20.382;2022-11-09T04:48:09;8.50;99.90
28520;DHT22;15732;48.534;20.382;2022-11-09T04:50:35;8.50;99.90
28520;DHT22;15732;48.534;20.382;2022-11-09T04:53:10;8.50;99.90
28520;DHT22;15732;48.534;20.382;2022-11-09T04:55:38;8.40;99.90
28520;DHT22;15732;48.534;20.382;2022-11-09T04:58:09;8.30;99.90
28520;DHT22;15732;48.534;20.382;2022-11-09T05:00:40;8.20;99.90
28520;DHT22;15732;48.534;20.382;2022-11-09T05:03:07;8.20;99.90
28520;DHT22;15732;48.534;20.382;2022-11-09T05:05:37;8.20;99.90
28520;DHT22;15732;48.534;20.382;2022-11-09T05:08:05;8.10;99.90
28520;DHT22;15732;48.534;20.382;2022-11-09T05:10:33;8.10;99.90
28520;DHT22;15732;48.534;20.382;2022-11-09T05:13:20;8.00;99.90
28520;DHT22;15732;48.534;20.382;2022-11-09T05:15:51;8.00;99.90
28520;DHT22;15732;48.534;20.382;2022-11-09T05:18:18;8.00;99.90
28520;DHT22;15732;48.534;20.382;2022-11-09T05:20:45;7.90;99.90
28520;DHT22;15732;48.534;20.382;2022-11-09T05:23:12;8.00;99.90
28520;DHT22;15732;48.534;20.382;2022-11-09T05:25:57;8.10;99.90
28520;DHT22;15732;48.534;20.382;2022-11-09T05:28:25;8.10;99.90
28520;DHT22;15732;48.534;20.382;2022-11-09T05:30:52;8.10;99.90
28520;DHT22;15732;48.534;20.382;2022-11-09T05:33:19;8.10;99.90
28520;DHT22;15732;48.534;20.382;2022-11-09T05:35:52;8.00;99.90
28520;DHT22;15732;48.534;20.382;2022-11-09T05:38:19;8.00;99.90
28520;DHT22;15732;48.534;20.382;2022-11-09T05:40:48;8.00;99.90
28520;DHT22;15732;48.534;20.382;2022-11-09T05:43:15;7.90;99.90
28520;DHT22;15732;48.534;20.382;2022-11-09T05:45:42;8.00;99.90
28520;DHT22;15732;48.534;20.382;2022-11-09T05:48:15;8.00;99.90
28520;DHT22;15732;48.534;20.382;2022-11-09T05:50:43;7.90;99.90
28520;DHT22;15732;48.534;20.382;2022-11-09T05:53:10;8.00;99.90
28520;DHT22;15732;48.534;20.382;2022-11-09T05:55:38;8.00;99.90
28520;DHT22;15732;48.534;20.382;2022-11-09T05:58:05;8.00;99.90
28520;DHT22;15732;48.534;20.382;2022-11-09T06:00:32;8.00;99.90
28520;DHT22;15732;48.534;20.382;2022-11-09T06:03:03;8.10;99.90
28520;DHT22;15732;48.534;20.382;2022-11-09T06:05:34;8.00;99.90
28520;DHT22;15732;48.534;20.382;2022-11-09T06:08:09;8.00;99.90
28520;DHT22;15732;48.534;20.382;2022-11-09T06:10:36;8.10;99.90
28520;DHT22;15732;48.534;20.382;2022-11-09T06:13:03;8.10;99.90
28520;DHT22;15732;48.534;20.382;2022-11-09T06:15:31;8.20;99.90
28520;DHT22;15732;48.534;20.382;2022-11-09T06:17:58;8.20;99.90
28520;DHT22;15732;48.534;20.382;2022-11-09T06:20:29;8.20;99.90
28520;DHT22;15732;48.534;20.382;2022-11-09T06:23:01;8.30;99.90
28520;DHT22;15732;48.534;20.382;2022-11-09T06:25:29;8.30;99.90
28520;DHT22;15732;48.534;20.382;2022-11-09T06:27:57;8.30;99.90
28520;DHT22;15732;48.534;20.382;2022-11-09T06:30:24;8.30;99.90
28520;DHT22;15732;48.534;20.382;2022-11-09T06:32:59;8.20;99.90
28520;DHT22;15732;48.534;20.382;2022-11-09T06:35:26;8.30;99.90
28520;DHT22;15732;48.534;20.382;2022-11-09T06:37:58;8.30;99.90
28520;DHT22;15732;48.534;20.382;2022-11-09T06:40:25;8.30;99.90
28520;DHT22;15732;48.534;20.382;2022-11-09T06:42:58;8.30;99.90
28520;DHT22;15732;48.534;20.382;2022-11-09T06:45:30;8.30;99.90
28520;DHT22;15732;48.534;20.382;2022-11-09T06:47:58;8.40;99.90
28520;DHT22;15732;48.534;20.382;2022-11-09T06:50:30;8.40;99.90
28520;DHT22;15732;48.534;20.382;2022-11-09T06:52:59;8.50;99.90
28520;DHT22;15732;48.534;20.382;2022-11-09T06:55:26;8.60;99.90
28520;DHT22;15732;48.534;20.382;2022-11-09T06:57:53;8.60;99.90
28520;DHT22;15732;48.534;20.382;2022-11-09T07:00:20;8.60;99.90
28520;DHT22;15732;48.534;20.382;2022-11-09T07:02:51;8.60;99.90
28520;DHT22;15732;48.534;20.382;2022-11-09T07:05:22;8.70;99.90
28520;DHT22;15732;48.534;20.382;2022-11-09T07:07:49;8.70;99.90
28520;DHT22;15732;48.534;20.382;2022-11-09T07:10:20;8.70;99.90
28520;DHT22;15732;48.534;20.382;2022-11-09T07:12:48;8.80;99.90
28520;DHT22;15732;48.534;20.382;2022-11-09T07:15:15;8.80;99.90
28520;DHT22;15732;48.534;20.382;2022-11-09T07:17:44;8.80;99.90
28520;DHT22;15732;48.534;20.382;2022-11-09T07:20:12;8.80;99.90
28520;DHT22;15732;48.534;20.382;2022-11-09T07:22:40;8.80;99.90
28520;DHT22;15732;48.534;20.382;2022-11-09T07:25:09;8.80;99.90
28520;DHT22;15732;48.534;20.382;2022-11-09T07:27:41;8.90;99.90
28520;DHT22;15732;48.534;20.382;2022-11-09T07:30:13;8.90;99.90
28520;DHT22;15732;48.534;20.382;2022-11-09T07:32:40;8.90;99.90
28520;DHT22;15732;48.534;20.382;2022-11-09T07:35:10;8.90;99.90
28520;DHT22;15732;48.534;20.382;2022-11-09T07:37:38;8.90;99.90
28520;DHT22;15732;48.534;20.382;2022-11-09T07:40:10;8.90;99.90
28520;DHT22;15732;48.534;20.382;2022-11-09T07:42:38;9.00;99.90
28520;DHT22;15732;48.534;20.382;2022-11-09T07:45:07;9.00;99.90
28520;DHT22;15732;48.534;20.382;2022-11-09T07:47:35;9.00;99.90
28520;DHT22;15732;48.534;20.382;2022-11-09T07:50:07;9.00;99.90
28520;DHT22;15732;48.534;20.382;2022-11-09T07:52:34;9.00;99.90
28520;DHT22;15732;48.534;20.382;2022-11-09T07:55:01;9.00;99.90
28520;DHT22;15732;48.534;20.382;2022-11-09T07:57:28;9.00;99.90
28520;DHT22;15732;48.534;20.382;2022-11-09T07:59:55;9.00;99.90
28520;DHT22;15732;48.534;20.382;2022-11-09T08:02:23;9.10;99.90
28520;DHT22;15732;48.534;20.382;2022-11-09T08:04:54;9.10;99.90
28520;DHT22;15732;48.534;20.382;2022-11-09T08:07:21;9.10;99.90
28520;DHT22;15732;48.534;20.382;2022-11-09T08:09:49;9.10;99.90
28520;DHT22;15732;48.534;20.382;2022-11-09T08:12:20;9.10;99.90
28520;DHT22;15732;48.534;20.382;2022-11-09T08:14:52;9.00;99.90
28520;DHT22;15732;48.534;20.382;2022-11-09T08:17:19;9.00;99.90
28520;DHT22;15732;48.534;20.382;2022-11-09T08:19:50;9.00;99.90
28520;DHT22;15732;48.534;20.382;2022-11-09T08:22:18;9.00;99.90
28520;DHT22;15732;48.534;20.382;2022-11-09T08:24:49;9.00;99.90
28520;DHT22;15732;48.534;20.382;2022-11-09T08:27:17;9.00;99.90
28520;DHT22;15732;48.534;20.382;2022-11-09T08:29:48;9.10;99.90
28520;DHT22;15732;48.534;20.382;2022-11-09T08:32:19;9.10;99.90
28520;DHT22;15732;48.534;20.382;2022-11-09T08:34:50;9.20;99.90
28520;DHT22;15732;48.534;20.382;2022-11-09T08:37:17;9.20;99.90
28520;DHT22;15732;48.534;20.382;2022-11-09T08:39:45;9.20;99.90
28520;DHT22;15732;48.534;20.382;2022-11-09T08:42:12;9.20;99.90
28520;DHT22;15732;48.534;20.382;2022-11-09T08:44:39;9.30;99.90
28520;DHT22;15732;48.534;20.382;2022-11-09T08:47:07;9.30;99.90
28520;DHT22;15732;48.534;20.382;2022-11-09T08:49:34;9.30;99.90
28520;DHT22;15732;48.534;20.382;2022-11-09T08:52:01;9.40;99.90
28520;DHT22;15732;48.534;20.382;2022-11-09T08:54:32;9.40;99.90
28520;DHT22;15732;48.534;20.382;2022-11-09T08:57:03;9.40;99.90
28520;DHT22;15732;48.534;20.382;2022-11-09T08:59:30;9.40;99.90
28520;DHT22;15732;48.534;20.382;2022-11-09T09:01:58;9.40;99.90
28520;DHT22;15732;48.534;20.382;2022-11-09T09:04:29;9.50;99.90
28520;DHT22;15732;48.534;20.382;2022-11-09T09:06:56;9.50;99.90
28520;DHT22;15732;48.534;20.382;2022-11-09T09:09:25;9.50;99.90
28520;DHT22;15732;48.534;20.382;2022-11-09T09:11:52;9.50;99.90
28520;DHT22;15732;48.534;20.382;2022-11-09T09:14:20;9.50;99.90
28520;DHT22;15732;48.534;20.382;2022-11-09T09:16:47;9.50;99.90
28520;DHT22;15732;48.534;20.382;2022-11-09T09:19:18;9.60;99.90
28520;DHT22;15732;48.534;20.382;2022-11-09T09:21:50;9.60;99.90
28520;DHT22;15732;48.534;20.382;2022-11-09T09:24:20;9.50;99.90
28520;DHT22;15732;48.534;20.382;2022-11-09T09:26:48;9.60;99.90
28520;DHT22;15732;48.534;20.382;2022-11-09T09:29:19;9.60;99.90
28520;DHT22;15732;48.534;20.382;2022-11-09T09:31:46;9.60;99.90
28520;DHT22;15732;48.534;20.382;2022-11-09T09:34:14;9.70;99.90
28520;DHT22;15732;48.534;20.382;2022-11-09T09:36:41;9.70;99.90
28520;DHT22;15732;48.534;20.382;2022-11-09T09:39:08;9.70;99.90
28520;DHT22;15732;48.534;20.382;2022-11-09T09:44:28;9.80;99.90
28520;DHT22;15732;48.534;20.382;2022-11-09T09:49:36;9.80;99.90
28520;DHT22;15732;48.534;20.382;2022-11-09T09:52:19;9.90;99.90
28520;DHT22;15732;48.534;20.382;2022-11-09T09:54:57;9.90;99.90
28520;DHT22;15732;48.534;20.382;2022-11-09T09:57:27;9.90;99.90
28520;DHT22;15732;48.534;20.382;2022-11-09T09:59:58;9.90;99.90
28520;DHT22;15732;48.534;20.382;2022-11-09T10:02:28;9.90;99.90
28520;DHT22;15732;48.534;20.382;2022-11-09T10:04:59;10.00;99.90
28520;DHT22;15732;48.534;20.382;2022-11-09T10:07:43;10.00;99.90
28520;DHT22;15732;48.534;20.382;2022-11-09T10:15:34;10.10;99.90
28520;DHT22;15732;48.534;20.382;2022-11-09T10:18:30;10.10;99.90
28520;DHT22;15732;48.534;20.382;2022-11-09T10:26:28;10.10;99.90
28520;DHT22;15732;48.534;20.382;2022-11-09T10:29:34;10.10;99.90
28520;DHT22;15732;48.534;20.382;2022-11-09T10:32:20;10.10;99.90
28520;DHT22;15732;48.534;20.382;2022-11-09T10:35:00;10.20;99.90
28520;DHT22;15732;48.534;20.382;2022-11-09T10:37:37;10.20;99.90
28520;DHT22;15732;48.534;20.382;2022-11-09T10:42:34;10.20;99.90
28520;DHT22;15732;48.534;20.382;2022-11-09T10:45:12;10.20;99.90
28520;DHT22;15732;48.534;20.382;2022-11-09T10:47:50;10.20;99.90
28520;DHT22;15732;48.534;20.382;2022-11-09T10:52:50;10.30;99.90
28520;DHT22;15732;48.534;20.382;2022-11-09T10:55:25;10.30;99.90
28520;DHT22;15732;48.534;20.382;2022-11-09T11:01:34;10.30;99.90
28520;DHT22;15732;48.534;20.382;2022-11-09T11:03:50;10.30;99.90
28520;DHT22;15732;48.534;20.382;2022-11-09T11:06:18;10.30;99.90
28520;DHT22;15732;48.534;20.382;2022-11-09T11:11:28;10.30;99.90
28520;DHT22;15732;48.534;20.382;2022-11-09T11:14:22;10.30;99.90
28520;DHT22;15732;48.534;20.382;2022-11-09T11:17:03;10.30;99.90
28520;DHT22;15732;48.534;20.382;2022-11-09T11:19:37;10.30;99.90
28520;DHT22;15732;48.534;20.382;2022-11-09T11:25:00;10.40;99.90
28520;DHT22;15732;48.534;20.382;2022-11-09T11:27:43;10.40;99.90
28520;DHT22;15732;48.534;20.382;2022-11-09T11:30:14;10.40;99.90
28520;DHT22;15732;48.534;20.382;2022-11-09T11:32:42;10.40;99.90
28520;DHT22;15732;48.534;20.382;2022-11-09T11:35:38;10.40;99.90
28520;DHT22;15732;48.534;20.382;2022-11-09T11:43:55;10.50;99.90
28520;DHT22;15732;48.534;20.382;2022-11-09T11:46:45;10.50;99.90
28520;DHT22;15732;48.534;20.382;2022-11-09T11:58:09;10.60;99.90
28520;DHT22;15732;48.534;20.382;2022-11-09T12:20:37;10.60;99.90
28520;DHT22;15732;48.534;20.382;2022-11-09T12:34:17;10.70;99.90
28520;DHT22;15732;48.534;20.382;2022-11-09T12:36:54;10.70;99.90
28520;DHT22;15732;48.534;20.382;2022-11-09T12:39:46;10.80;99.90
28520;DHT22;15732;48.534;20.382;2022-11-09T12:42:43;10.80;99.90
28520;DHT22;15732;48.534;20.382;2022-11-09T12:45:37;10.80;99.90
28520;DHT22;15732;48.534;20.382;2022-11-09T12:50:46;10.80;99.90
28520;DHT22;15732;48.534;20.382;2022-11-09T12:53:15;10.80;99.90
28520;DHT22;15732;48.534;20.382;2022-11-09T12:58:23;10.80;99.90
28520;DHT22;15732;48.534;20.382;2022-11-09T13:00:53;10.80;99.90
28520;DHT22;15732;48.534;20.382;2022-11-09T13:03:26;10.80;99.90
28520;DHT22;15732;48.534;20.382;2022-11-09T13:11:42;10.80;99.90
28520;DHT22;15732;48.534;20.382;2022-11-09T13:17:00;10.80;99.90
28520;DHT22;15732;48.534;20.382;2022-11-09T13:22:02;10.80;99.90
28520;DHT22;15732;48.534;20.382;2022-11-09T13:24:58;10.80;99.90
28520;DHT22;15732;48.534;20.382;2022-11-09T13:27:46;10.80;99.90
28520;DHT22;15732;48.534;20.382;2022-11-09T13:38:28;10.80;99.90
28520;DHT22;15732;48.534;20.382;2022-11-09T13:40:57;10.80;99.90
28520;DHT22;15732;48.534;20.382;2022-11-09T13:43:35;10.80;99.90
28520;DHT22;15732;48.534;20.382;2022-11-09T13:46:30;10.80;99.90
28520;DHT22;15732;48.534;20.382;2022-11-09T13:48:59;10.80;99.90
28520;DHT22;15732;48.534;20.382;2022-11-09T13:54:26;10.80;99.90
28520;DHT22;15732;48.534;20.382;2022-11-09T13:56:52;10.80;99.90
28520;DHT22;15732;48.534;20.382;2022-11-09T13:59:33;10.80;99.90
28520;DHT22;15732;48.534;20.382;2022-11-09T14:02:02;10.80;99.90
28520;DHT22;15732;48.534;20.382;2022-11-09T14:04:37;10.80;99.90
28520;DHT22;15732;48.534;20.382;2022-11-09T14:15:17;10.80;99.90
28520;DHT22;15732;48.534;20.382;2022-11-09T14:23:50;10.80;99.90
28520;DHT22;15732;48.534;20.382;2022-11-09T14:26:24;10.80;99.90
28520;DHT22;15732;48.534;20.382;2022-11-09T14:28:51;10.80;99.90
28520;DHT22;15732;48.534;20.382;2022-11-09T14:31:22;10.80;99.90
28520;DHT22;15732;48.534;20.382;2022-11-09T14:34:03;10.80;99.90
28520;DHT22;15732;48.534;20.382;2022-11-09T14:36:32;10.80;99.90
28520;DHT22;15732;48.534;20.382;2022-11-09T14:39:04;10.80;99.90
28520;DHT22;15732;48.534;20.382;2022-11-09T14:41:35;10.80;99.90
28520;DHT22;15732;48.534;20.382;2022-11-09T14:44:02;10.80;99.90
28520;DHT22;15732;48.534;20.382;2022-11-09T14:46:30;10.80;99.90
28520;DHT22;15732;48.534;20.382;2022-11-09T14:48:59;10.80;99.90
28520;DHT22;15732;48.534;20.382;2022-11-09T14:51:46;10.80;99.90
28520;DHT22;15732;48.534;20.382;2022-11-09T14:54:22;10.80;99.90
28520;DHT22;15732;48.534;20.382;2022-11-09T14:56:49;10.80;99.90
28520;DHT22;15732;48.534;20.382;2022-11-09T14:59:30;10.70;99.90
28520;DHT22;15732;48.534;20.382;2022-11-09T15:02:10;10.70;99.90
28520;DHT22;15732;48.534;20.382;2022-11-09T15:04:53;10.80;99.90
28520;DHT22;15732;48.534;20.382;2022-11-09T15:07:23;10.80;99.90
28520;DHT22;15732;48.534;20.382;2022-11-09T15:09:56;10.80;99.90
28520;DHT22;15732;48.534;20.382;2022-11-09T15:12:25;10.80;99.90
28520;DHT22;15732;48.534;20.382;2022-11-09T15:14:59;10.70;99.90
28520;DHT22;15732;48.534;20.382;2022-11-09T15:17:37;10.70;99.90
28520;DHT22;15732;48.534;20.382;2022-11-09T15:23:04;10.70;99.90
28520;DHT22;15732;48.534;20.382;2022-11-09T15:30:40;10.70;99.90
28520;DHT22;15732;48.534;20.382;2022-11-09T15:33:18;10.70;99.90
28520;DHT22;15732;48.534;20.382;2022-11-09T15:38:39;10.70;99.90
28520;DHT22;15732;48.534;20.382;2022-11-09T15:41:11;10.70;99.90
28520;DHT22;15732;48.534;20.382;2022-11-09T15:43:45;10.70;99.90
28520;DHT22;15732;48.534;20.382;2022-11-09T15:46:31;10.70;99.90
28520;DHT22;15732;48.534;20.382;2022-11-09T15:49:11;10.70;99.90
28520;DHT22;15732;48.534;20.382;2022-11-09T15:51:39;10.70;99.90
28520;DHT22;15732;48.534;20.382;2022-11-09T15:54:06;10.70;99.90
28520;DHT22;15732;48.534;20.382;2022-11-09T15:56:34;10.70;99.90
28520;DHT22;15732;48.534;20.382;2022-11-09T15:59:01;10.70;99.90
28520;DHT22;15732;48.534;20.382;2022-11-09T16:01:32;10.70;99.90
28520;DHT22;15732;48.534;20.382;2022-11-09T16:03:59;10.70;99.90
28520;DHT22;15732;48.534;20.382;2022-11-09T16:06:27;10.70;99.90
28520;DHT22;15732;48.534;20.382;2022-11-09T16:08:55;10.70;99.90
28520;DHT22;15732;48.534;20.382;2022-11-09T16:11:26;10.70;99.90
28520;DHT22;15732;48.534;20.382;2022-11-09T16:14:01;10.70;99.90
28520;DHT22;15732;48.534;20.382;2022-11-09T16:16:33;10.70;99.90
28520;DHT22;15732;48.534;20.382;2022-11-09T16:19:00;10.70;99.90
28520;DHT22;15732;48.534;20.382;2022-11-09T16:21:27;10.70;99.90
28520;DHT22;15732;48.534;20.382;2022-11-09T16:23:54;10.70;99.90
28520;DHT22;15732;48.534;20.382;2022-11-09T16:26:22;10.70;99.90
28520;DHT22;15732;48.534;20.382;2022-11-09T16:28:49;10.70;99.90
28520;DHT22;15732;48.534;20.382;2022-11-09T16:31:16;10.70;99.90
28520;DHT22;15732;48.534;20.382;2022-11-09T16:33:48;10.70;99.90
28520;DHT22;15732;48.534;20.382;2022-11-09T16:36:17;10.70;99.90
28520;DHT22;15732;48.534;20.382;2022-11-09T16:38:53;10.70;99.90
28520;DHT22;15732;48.534;20.382;2022-11-09T16:41:23;10.70;99.90
28520;DHT22;15732;48.534;20.382;2022-11-09T16:43:56;10.60;99.90
28520;DHT22;15732;48.534;20.382;2022-11-09T16:46:28;10.70;99.90
28520;DHT22;15732;48.534;20.382;2022-11-09T16:48:56;10.70;99.90
28520;DHT22;15732;48.534;20.382;2022-11-09T16:51:30;10.60;99.90
28520;DHT22;15732;48.534;20.382;2022-11-09T16:53:58;10.60;99.90
28520;DHT22;15732;48.534;20.382;2022-11-09T16:56:28;10.60;99.90
28520;DHT22;15732;48.534;20.382;2022-11-09T16:58:58;10.60;99.90
28520;DHT22;15732;48.534;20.382;2022-11-09T17:01:26;10.60;99.90
28520;DHT22;15732;48.534;20.382;2022-11-09T17:03:55;10.60;99.90
28520;DHT22;15732;48.534;20.382;2022-11-09T17:06:21;10.60;99.90
28520;DHT22;15732;48.534;20.382;2022-11-09T17:08:49;10.60;99.90
28520;DHT22;15732;48.534;20.382;2022-11-09T17:11:16;10.70;99.90
28520;DHT22;15732;48.534;20.382;2022-11-09T17:13:56;10.60;99.90
28520;DHT22;15732;48.534;20.382;2022-11-09T17:16:24;10.60;99.90
28520;DHT22;15732;48.534;20.382;2022-11-09T17:18:53;10.70;99.90
28520;DHT22;15732;48.534;20.382;2022-11-09T17:21:21;10.60;99.90
28520;DHT22;15732;48.534;20.382;2022-11-09T17:23:52;10.60;99.90
28520;DHT22;15732;48.534;20.382;2022-11-09T17:26:21;10.60;99.90
28520;DHT22;15732;48.534;20.382;2022-11-09T17:28:48;10.60;99.90
28520;DHT22;15732;48.534;20.382;2022-11-09T17:31:21;10.60;99.90
28520;DHT22;15732;48.534;20.382;2022-11-09T17:33:48;10.60;99.90
28520;DHT22;15732;48.534;20.382;2022-11-09T17:36:19;10.60;99.90
28520;DHT22;15732;48.534;20.382;2022-11-09T17:38:46;10.60;99.90
28520;DHT22;15732;48.534;20.382;2022-11-09T17:41:16;10.60;99.90
28520;DHT22;15732;48.534;20.382;2022-11-09T17:43:43;10.60;99.90
28520;DHT22;15732;48.534;20.382;2022-11-09T17:46:17;10.60;99.90
28520;DHT22;15732;48.534;20.382;2022-11-09T17:48:48;10.70;99.90
28520;DHT22;15732;48.534;20.382;2022-11-09T17:51:16;10.70;99.90
28520;DHT22;15732;48.534;20.382;2022-11-09T17:53:43;10.60;99.90
28520;DHT22;15732;48.534;20.382;2022-11-09T17:56:11;10.70;99.90
28520;DHT22;15732;48.534;20.382;2022-11-09T17:58:42;10.60;99.90